sensor_id;sensor_type;location;lat;lon;timestamp;pressure;altitude;pressure_sealevel;temperature;humidity
74431;BME280;62863;52.062;23.764;2024-02-28T01:54:54;1025.2;;;8;72.9
74431;BME280;62863;52.062;23.764;2024-02-28T01:59:24;1025.2;;;7.9;72.6
74431;BME280;62863;52.062;23.764;2024-02-28T02:04:31;1025.3;;;7.8;72.8
74431;BME280;62863;52.062;23.764;2024-02-28T02:09:23;1025.2;;;7.6;73.1
74431;BME280;62863;52.062;23.764;2024-02-28T02:14:31;1025.2;;;7.6;73.3
74431;BME280;62863;52.062;23.764;2024-02-28T02:19:23;1025.2;;;7.6;73.9
74431;BME280;62863;52.062;23.764;2024-02-28T02:24:29;1025.1;;;7.5;73.8
74431;BME280;62863;52.062;23.764;2024-02-28T02:29:47;1025.2;;;7.5;74.1
74431;BME280;62863;52.062;23.764;2024-02-28T02:34:37;1025.2;;;7.4;73.9
74431;BME280;62863;52.062;23.764;2024-02-28T02:39:40;1025.2;;;7.4;73.9
74431;BME280;62863;52.062;23.764;2024-02-28T02:44:53;1025.2;;;7.3;73.9
74431;BME280;62863;52.062;23.764;2024-02-28T02:49:46;1025.3;;;7.2;73.7
74431;BME280;62863;52.062;23.764;2024-02-28T02:54:37;1025.3;;;7.2;73.5
74431;BME280;62863;52.062;23.764;2024-02-28T02:59:26;1025.2;;;7.1;73.4
74431;BME280;62863;52.062;23.764;2024-02-28T03:04:25;1025.2;;;7.1;73.6
74431;BME280;62863;52.062;23.764;2024-02-28T03:09:42;1025.2;;;7.1;74.1
74431;BME280;62863;52.062;23.764;2024-02-28T03:14:44;1025.2;;;7;73.9
74431;BME280;62863;52.062;23.764;2024-02-28T03:19:33;1025.2;;;6.9;73.9
74431;BME280;62863;52.062;23.764;2024-02-28T03:25:02;1025.2;;;6.9;74.5
74431;BME280;62863;52.062;23.764;2024-02-28T03:29:41;1025.2;;;6.9;74.7
74431;BME280;62863;52.062;23.764;2024-02-28T03:34:33;1025.2;;;7;74.6
74431;BME280;62863;52.062;23.764;2024-02-28T03:39:31;1025.2;;;7;74.4
74431;BME280;62863;52.062;23.764;2024-02-28T03:44:31;1025.2;;;6.9;74.1
74431;BME280;62863;52.062;23.764;2024-02-28T03:49:31;1025.2;;;7;73.9
74431;BME280;62863;52.062;23.764;2024-02-28T03:54:24;1025.2;;;7;73.5
74431;BME280;62863;52.062;23.764;2024-02-28T03:59:48;1025.2;;;7;73.3
74431;BME280;62863;52.062;23.764;2024-02-28T04:04:49;1025.2;;;7;73.1
74431;BME280;62863;52.062;23.764;2024-02-28T04:09:40;1025.3;;;7;73
74431;BME280;62863;52.062;23.764;2024-02-28T04:15:06;1025.2;;;6.9;73.4
74431;BME280;62863;52.062;23.764;2024-02-28T04:19:56;1025.2;;;6.9;73.4
74431;BME280;62863;52.062;23.764;2024-02-28T04:24:50;1025.2;;;7;73.4
74431;BME280;62863;52.062;23.764;2024-02-28T04:29:56;1025.2;;;6.9;73.3
74431;BME280;62863;52.062;23.764;2024-02-28T04:34:50;1025.2;;;6.9;73.3
74431;BME280;62863;52.062;23.764;2024-02-28T04:39:42;1025.2;;;6.8;73.3
74431;BME280;62863;52.062;23.764;2024-02-28T04:44:32;1025.3;;;6.7;73.3
74431;BME280;62863;52.062;23.764;2024-02-28T04:49:44;1025.2;;;6.7;73.1
74431;BME280;62863;52.062;23.764;2024-02-28T04:54:26;1025.2;;;6.6;72.9
74431;BME280;62863;52.062;23.764;2024-02-28T05:00:02;1025.2;;;6.5;72.8
74431;BME280;62863;52.062;23.764;2024-02-28T05:04:44;1025.2;;;6.5;73
74431;BME280;62863;52.062;23.764;2024-02-28T05:09:54;1025.2;;;6.4;73.2
74431;BME280;62863;52.062;23.764;2024-02-28T05:14:32;1025.3;;;6.3;73.3
74431;BME280;62863;52.062;23.764;2024-02-28T05:19:24;1025.4;;;6.3;74
74431;BME280;62863;52.062;23.764;2024-02-28T05:24:24;1025.5;;;6.4;74.1
74431;BME280;62863;52.062;23.764;2024-02-28T05:29:24;1025.5;;;6.4;73.9
74431;BME280;62863;52.062;23.764;2024-02-28T05:34:24;1025.5;;;6.5;73.5
74431;BME280;62863;52.062;23.764;2024-02-28T05:40:04;1025.6;;;6.9;72.5
74431;BME280;62863;52.062;23.764;2024-02-28T05:44:54;1025.6;;;6.9;72.5
74431;BME280;62863;52.062;23.764;2024-02-28T05:49:56;1025.6;;;7.1;71.4
74431;BME280;62863;52.062;23.764;2024-02-28T05:55:02;1025.7;;;7.3;70.6
74431;BME280;62863;52.062;23.764;2024-02-28T05:59:40;1025.7;;;7.5;70
74431;BME280;62863;52.062;23.764;2024-02-28T06:05:04;1025.6;;;8.8;66.9
74431;BME280;62863;52.062;23.764;2024-02-28T06:10:04;1025.6;;;9.7;64.3
74431;BME280;62863;52.062;23.764;2024-02-28T06:14:54;1025.6;;;9.7;64.3
74431;BME280;62863;52.062;23.764;2024-02-28T06:19:40;1025.6;;;10.7;62.5
74431;BME280;62863;52.062;23.764;2024-02-28T06:24:26;1025.6;;;11.9;59.3
74431;BME280;62863;52.062;23.764;2024-02-28T06:29:54;1025.6;;;13.1;56.9
74431;BME280;62863;52.062;23.764;2024-02-28T06:35:04;1025.6;;;15.3;52.5
74431;BME280;62863;52.062;23.764;2024-02-28T06:39:32;1025.6;;;15.3;52.5
74431;BME280;62863;52.062;23.764;2024-02-28T06:45:04;1025.5;;;16.5;48.3
74431;BME280;62863;52.062;23.764;2024-02-28T06:49:24;1025.5;;;16.5;48.3
74431;BME280;62863;52.062;23.764;2024-02-28T06:54:24;1025.5;;;17;46.3
74431;BME280;62863;52.062;23.764;2024-02-28T06:59:44;1025.4;;;17.7;44.6
74431;BME280;62863;52.062;23.764;2024-02-28T07:04:32;1025.5;;;17.6;44
74431;BME280;62863;52.062;23.764;2024-02-28T07:09:44;1025.5;;;17.4;43.9
74431;BME280;62863;52.062;23.764;2024-02-28T07:14:32;1025.6;;;17.4;44.3
74431;BME280;62863;52.062;23.764;2024-02-28T07:19:26;1025.6;;;17.5;44.4
74431;BME280;62863;52.062;23.764;2024-02-28T07:24:40;1025.6;;;17.4;44.3
74431;BME280;62863;52.062;23.764;2024-02-28T07:30:04;1025.8;;;15.7;46.9
74431;BME280;62863;52.062;23.764;2024-02-28T07:34:32;1025.8;;;15.7;46.9
74431;BME280;62863;52.062;23.764;2024-02-28T07:39:50;1025.8;;;15.8;47
74431;BME280;62863;52.062;23.764;2024-02-28T07:44:50;1025.7;;;17.1;44.7
74431;BME280;62863;52.062;23.764;2024-02-28T07:49:46;1025.7;;;18.5;42.2
74431;BME280;62863;52.062;23.764;2024-02-28T07:54:24;1025.7;;;17.5;43.3
74431;BME280;62863;52.062;23.764;2024-02-28T07:59:42;1025.7;;;16.9;44.5
74431;BME280;62863;52.062;23.764;2024-02-28T08:04:54;1025.8;;;17.6;43.2
74431;BME280;62863;52.062;23.764;2024-02-28T08:10:04;1025.7;;;18.6;41.8
74431;BME280;62863;52.062;23.764;2024-02-28T08:14:44;1025.7;;;18.6;41.8
74431;BME280;62863;52.062;23.764;2024-02-28T08:20:04;1025.7;;;19.8;40.9
74431;BME280;62863;52.062;23.764;2024-02-28T08:25:04;1025.7;;;20.2;40.3
74431;BME280;62863;52.062;23.764;2024-02-28T08:29:54;1025.7;;;20.2;40.3
74431;BME280;62863;52.062;23.764;2024-02-28T08:34:36;1025.6;;;20.5;39.7
74431;BME280;62863;52.062;23.764;2024-02-28T08:39:32;1025.6;;;20.5;38.7
74431;BME280;62863;52.062;23.764;2024-02-28T08:44:32;1025.5;;;20.8;38
74431;BME280;62863;52.062;23.764;2024-02-28T08:49:40;1025.4;;;21.8;36.5
74431;BME280;62863;52.062;23.764;2024-02-28T08:54:32;1025.4;;;22.5;35.2
74431;BME280;62863;52.062;23.764;2024-02-28T08:59:40;1025.4;;;22.6;35.2
74431;BME280;62863;52.062;23.764;2024-02-28T09:04:50;1025.5;;;22.2;35.8
74431;BME280;62863;52.062;23.764;2024-02-28T09:09:41;1025.5;;;21.2;37.4
74431;BME280;62863;52.062;23.764;2024-02-28T09:15:04;1025.4;;;19.5;40.5
74431;BME280;62863;52.062;23.764;2024-02-28T09:19:34;1025.4;;;19.5;40.5
74431;BME280;62863;52.062;23.764;2024-02-28T09:24:50;1025.5;;;18.7;42.2
74431;BME280;62863;52.062;23.764;2024-02-28T09:29:56;1025.6;;;18;43.3
74431;BME280;62863;52.062;23.764;2024-02-28T09:34:50;1025.6;;;17.9;43.9
74431;BME280;62863;52.062;23.764;2024-02-28T09:39:54;1025.6;;;17.4;44.4
74431;BME280;62863;52.062;23.764;2024-02-28T09:44:32;1025.7;;;17.1;45.4
74431;BME280;62863;52.062;23.764;2024-02-28T09:49:24;1025.7;;;17;45.8
74431;BME280;62863;52.062;23.764;2024-02-28T09:54:54;1025.8;;;17;46.2
74431;BME280;62863;52.062;23.764;2024-02-28T10:00:04;1025.9;;;16.8;46.9
74431;BME280;62863;52.062;23.764;2024-02-28T10:04:36;1025.9;;;16.8;46.9
74431;BME280;62863;52.062;23.764;2024-02-28T10:09:46;1025.9;;;16.8;47.4
74431;BME280;62863;52.062;23.764;2024-02-28T10:14:40;1025.9;;;16.9;47.2
74431;BME280;62863;52.062;23.764;2024-02-28T10:19:32;1025.8;;;16.9;47.4
74431;BME280;62863;52.062;23.764;2024-02-28T10:24:44;1025.8;;;17.4;47.2
74431;BME280;62863;52.062;23.764;2024-02-28T10:29:33;1025.8;;;18.2;46
74431;BME280;62863;52.062;23.764;2024-02-28T10:34:44;1025.8;;;18.4;45.3
74431;BME280;62863;52.062;23.764;2024-02-28T10:40:04;1025.8;;;18.9;44.5
74431;BME280;62863;52.062;23.764;2024-02-28T10:44:54;1025.8;;;18.9;44.5
74431;BME280;62863;52.062;23.764;2024-02-28T10:49:50;1025.7;;;18.8;45
74431;BME280;62863;52.062;23.764;2024-02-28T10:55:05;1025.8;;;18.2;46.1
74431;BME280;62863;52.062;23.764;2024-02-28T10:59:40;1025.8;;;18.2;46.1
74431;BME280;62863;52.062;23.764;2024-02-28T11:05:04;1025.8;;;17.7;47.3
74431;BME280;62863;52.062;23.764;2024-02-28T11:10:05;1025.8;;;17.7;47.4
74431;BME280;62863;52.062;23.764;2024-02-28T11:14:56;1025.8;;;17.7;47.4
74431;BME280;62863;52.062;23.764;2024-02-28T11:19:40;1025.9;;;17.6;47.6
74431;BME280;62863;52.062;23.764;2024-02-28T11:24:42;1025.8;;;17.7;47.3
74431;BME280;62863;52.062;23.764;2024-02-28T11:29:38;1025.7;;;18;46.8
74431;BME280;62863;52.062;23.764;2024-02-28T11:35:04;1025.6;;;18.7;46
74431;BME280;62863;52.062;23.764;2024-02-28T11:39:46;1025.6;;;18.7;46
74431;BME280;62863;52.062;23.764;2024-02-28T11:45:04;1025.6;;;19;45.5
74431;BME280;62863;52.062;23.764;2024-02-28T11:49:57;1025.6;;;19;45.5
74431;BME280;62863;52.062;23.764;2024-02-28T11:55:02;1025.6;;;19;45.9
74431;BME280;62863;52.062;23.764;2024-02-28T11:59:32;1025.6;;;18.8;46.1
74431;BME280;62863;52.062;23.764;2024-02-28T12:04:32;1025.5;;;18.6;46.9
74431;BME280;62863;52.062;23.764;2024-02-28T12:09:54;1025.5;;;18.6;46.8
74431;BME280;62863;52.062;23.764;2024-02-28T12:14:24;1025.4;;;18.5;46.9
74431;BME280;62863;52.062;23.764;2024-02-28T12:19:54;1025.4;;;18.4;46.8
74431;BME280;62863;52.062;23.764;2024-02-28T12:24:40;1025.4;;;18.5;46.8
74431;BME280;62863;52.062;23.764;2024-02-28T12:29:36;1025.3;;;18.8;45.9
74431;BME280;62863;52.062;23.764;2024-02-28T12:34:24;1025.3;;;19.4;45.1
74431;BME280;62863;52.062;23.764;2024-02-28T12:39:52;1025.3;;;19.7;44.2
74431;BME280;62863;52.062;23.764;2024-02-28T12:45:04;1025.2;;;19.7;44.2
74431;BME280;62863;52.062;23.764;2024-02-28T12:49:26;1025.2;;;19.7;44.2
74431;BME280;62863;52.062;23.764;2024-02-28T12:55:04;1025.2;;;19.8;43.9
74431;BME280;62863;52.062;23.764;2024-02-28T12:59:50;1025.2;;;19.8;43.9
74431;BME280;62863;52.062;23.764;2024-02-28T13:04:54;1025.2;;;19.5;44.1
74431;BME280;62863;52.062;23.764;2024-02-28T13:10:04;1025.2;;;19.2;45.3
74431;BME280;62863;52.062;23.764;2024-02-28T13:14:24;1025.2;;;19.2;45.3
74431;BME280;62863;52.062;23.764;2024-02-28T13:20:04;1025.3;;;19.1;45.8
74431;BME280;62863;52.062;23.764;2024-02-28T13:24:44;1025.3;;;19.1;45.8
74431;BME280;62863;52.062;23.764;2024-02-28T13:29:32;1025.3;;;18.9;46.4
74431;BME280;62863;52.062;23.764;2024-02-28T13:34:32;1025.4;;;18.5;47.2
74431;BME280;62863;52.062;23.764;2024-02-28T13:39:24;1025.3;;;18.2;47.9
74431;BME280;62863;52.062;23.764;2024-02-28T13:44:36;1025.3;;;18.1;48.2
74431;BME280;62863;52.062;23.764;2024-02-28T13:49:32;1025.3;;;18.2;48
74431;BME280;62863;52.062;23.764;2024-02-28T13:54:54;1025.2;;;18.3;47.9
74431;BME280;62863;52.062;23.764;2024-02-28T13:59:32;1025.2;;;18.1;48
74431;BME280;62863;52.062;23.764;2024-02-28T14:05:04;1025.3;;;17.8;49.1
74431;BME280;62863;52.062;23.764;2024-02-28T14:09:50;1025.3;;;17.8;49.1
74431;BME280;62863;52.062;23.764;2024-02-28T14:15:04;1025.3;;;17.5;50.1
74431;BME280;62863;52.062;23.764;2024-02-28T14:19:32;1025.3;;;17.5;50.1
74431;BME280;62863;52.062;23.764;2024-02-28T14:24:42;1025.3;;;17.4;50.3
74431;BME280;62863;52.062;23.764;2024-02-28T14:29:32;1025.4;;;17.2;50.7
74431;BME280;62863;52.062;23.764;2024-02-28T14:34:40;1025.4;;;17.1;51.2
74431;BME280;62863;52.062;23.764;2024-02-28T14:40:02;1025.4;;;17;51.3
74431;BME280;62863;52.062;23.764;2024-02-28T14:44:54;1025.5;;;16.9;51.8
74431;BME280;62863;52.062;23.764;2024-02-28T14:49:36;1025.5;;;16.7;52.3
74431;BME280;62863;52.062;23.764;2024-02-28T14:54:56;1025.5;;;16.7;52.8
74431;BME280;62863;52.062;23.764;2024-02-28T15:00:04;1025.7;;;16.5;53.5
74431;BME280;62863;52.062;23.764;2024-02-28T15:04:46;1025.7;;;16.5;53.5
74431;BME280;62863;52.062;23.764;2024-02-28T15:09:24;1025.7;;;16.4;53.6
74431;BME280;62863;52.062;23.764;2024-02-28T15:14:32;1025.7;;;16.2;53.8
74431;BME280;62863;52.062;23.764;2024-02-28T15:19:24;1025.7;;;16.1;54.3
74431;BME280;62863;52.062;23.764;2024-02-28T15:24:32;1025.7;;;15.9;54.6
74431;BME280;62863;52.062;23.764;2024-02-28T15:29:24;1025.7;;;15.8;54.7
74431;BME280;62863;52.062;23.764;2024-02-28T15:34:40;1025.8;;;15.6;55.4
74431;BME280;62863;52.062;23.764;2024-02-28T15:39:42;1025.8;;;15.5;56.4
74431;BME280;62863;52.062;23.764;2024-02-28T15:44:32;1025.9;;;15.3;56.8
74431;BME280;62863;52.062;23.764;2024-02-28T15:50:04;1026;;;15;58.7
74431;BME280;62863;52.062;23.764;2024-02-28T15:54:54;1026;;;15;58.7
74431;BME280;62863;52.062;23.764;2024-02-28T15:59:50;1025.9;;;14.8;59
74431;BME280;62863;52.062;23.764;2024-02-28T16:04:32;1025.9;;;14.7;59.8
74431;BME280;62863;52.062;23.764;2024-02-28T16:09:40;1026;;;14.5;60.2
74431;BME280;62863;52.062;23.764;2024-02-28T16:14:54;1026;;;14.5;60
74431;BME280;62863;52.062;23.764;2024-02-28T16:19:40;1026.1;;;14.3;60.7
74431;BME280;62863;52.062;23.764;2024-02-28T16:24:36;1026.1;;;14.3;61.4
74431;BME280;62863;52.062;23.764;2024-02-28T16:29:38;1026.1;;;14.3;61.7
74431;BME280;62863;52.062;23.764;2024-02-28T16:35:04;1026.1;;;14.1;61.6
74431;BME280;62863;52.062;23.764;2024-02-28T16:39:44;1026.1;;;14.1;61.6
74431;BME280;62863;52.062;23.764;2024-02-28T16:44:46;1026.1;;;14.1;61.4
74431;BME280;62863;52.062;23.764;2024-02-28T16:49:32;1026.1;;;14.1;60.9
74431;BME280;62863;52.062;23.764;2024-02-28T16:54:24;1026.1;;;14.1;61.2
74431;BME280;62863;52.062;23.764;2024-02-28T16:59:40;1026.2;;;14.1;61
74431;BME280;62863;52.062;23.764;2024-02-28T17:04:40;1026.2;;;14;60.8
74431;BME280;62863;52.062;23.764;2024-02-28T17:14:48;1026.2;;;14;61.2
74431;BME280;62863;52.062;23.764;2024-02-28T17:19:40;1026.3;;;13.9;60.8
74431;BME280;62863;52.062;23.764;2024-02-28T17:24:56;1026.2;;;13.9;60.8
74431;BME280;62863;52.062;23.764;2024-02-28T17:29:54;1026.3;;;13.9;61.1
74431;BME280;62863;52.062;23.764;2024-02-28T17:34:50;1026.2;;;13.8;61.7
74431;BME280;62863;52.062;23.764;2024-02-28T17:39:32;1026.2;;;13.6;62.2
74431;BME280;62863;52.062;23.764;2024-02-28T17:44:42;1026.3;;;13.5;62.9
74431;BME280;62863;52.062;23.764;2024-02-28T17:49:52;1026.3;;;13.3;63.9
74431;BME280;62863;52.062;23.764;2024-02-28T17:54:38;1026.3;;;13.2;63.6
74431;BME280;62863;52.062;23.764;2024-02-28T17:59:44;1026.3;;;13.2;63.8
74431;BME280;62863;52.062;23.764;2024-02-28T18:04:54;1026.4;;;13.1;64.9
74431;BME280;62863;52.062;23.764;2024-02-28T18:10:02;1026.3;;;13.1;64.7
74431;BME280;62863;52.062;23.764;2024-02-28T18:14:44;1026.3;;;13.1;63.8
74431;BME280;62863;52.062;23.764;2024-02-28T18:19:34;1026.3;;;13.1;64.1
74431;BME280;62863;52.062;23.764;2024-02-28T18:24:24;1026.4;;;13.1;64.2
74431;BME280;62863;52.062;23.764;2024-02-28T18:29:46;1026.5;;;13.1;64.1
74431;BME280;62863;52.062;23.764;2024-02-28T18:34:32;1026.5;;;13.1;63.9
74431;BME280;62863;52.062;23.764;2024-02-28T18:39:42;1026.5;;;13.1;63.9
74431;BME280;62863;52.062;23.764;2024-02-28T18:44:44;1026.5;;;13.1;63.2
74431;BME280;62863;52.062;23.764;2024-02-28T18:50:03;1026.6;;;13.1;63.3
74431;BME280;62863;52.062;23.764;2024-02-28T18:54:54;1026.6;;;13.1;63.5
74431;BME280;62863;52.062;23.764;2024-02-28T19:00:02;1026.6;;;13.1;63.5
74431;BME280;62863;52.062;23.764;2024-02-28T19:05:02;1026.6;;;13.2;63.5
74431;BME280;62863;52.062;23.764;2024-02-28T19:09:46;1026.6;;;13.2;64
74431;BME280;62863;52.062;23.764;2024-02-28T19:15:02;1026.6;;;13.2;64.9
74431;BME280;62863;52.062;23.764;2024-02-28T19:20:02;1026.6;;;13.2;66.6
74431;BME280;62863;52.062;23.764;2024-02-28T19:24:52;1026.6;;;13.1;69.2
74431;BME280;62863;52.062;23.764;2024-02-28T19:29:24;1026.7;;;13.1;70.4
74431;BME280;62863;52.062;23.764;2024-02-28T19:34:26;1026.7;;;13.1;70.6
74431;BME280;62863;52.062;23.764;2024-02-28T19:39:54;1026.7;;;13.1;70.9
74431;BME280;62863;52.062;23.764;2024-02-28T19:45:03;1026.7;;;13.1;70.8
74431;BME280;62863;52.062;23.764;2024-02-28T19:49:44;1026.8;;;13.1;71.7
74431;BME280;62863;52.062;23.764;2024-02-28T19:55:02;1026.8;;;13;71.3
74431;BME280;62863;52.062;23.764;2024-02-28T19:59:24;1026.9;;;12.9;72.2
74431;BME280;62863;52.062;23.764;2024-02-28T20:04:24;1026.9;;;12.8;72.8
74431;BME280;62863;52.062;23.764;2024-02-28T20:09:36;1026.9;;;12.8;72.6
74431;BME280;62863;52.062;23.764;2024-02-28T20:14:24;1026.9;;;12.8;72.6
74431;BME280;62863;52.062;23.764;2024-02-28T20:19:32;1027;;;12.8;72.6
74431;BME280;62863;52.062;23.764;2024-02-28T20:24:32;1027.1;;;12.8;72.8
74431;BME280;62863;52.062;23.764;2024-02-28T20:29:54;1027.1;;;12.7;73.4
74431;BME280;62863;52.062;23.764;2024-02-28T20:34:40;1027.1;;;12.7;73.9
74431;BME280;62863;52.062;23.764;2024-02-28T20:40:02;1027.1;;;12.7;73.7
74431;BME280;62863;52.062;23.764;2024-02-28T20:44:40;1027.2;;;12.7;74.7
74431;BME280;62863;52.062;23.764;2024-02-28T20:50:02;1027.2;;;12.6;74.3
74431;BME280;62863;52.062;23.764;2024-02-28T20:54:38;1027.3;;;12.5;74.8
74431;BME280;62863;52.062;23.764;2024-02-28T20:59:52;1027.3;;;12.4;74.9
74431;BME280;62863;52.062;23.764;2024-02-28T21:04:38;1027.4;;;12.4;75.4
74431;BME280;62863;52.062;23.764;2024-02-28T21:09:48;1027.4;;;12.4;75.4
74431;BME280;62863;52.062;23.764;2024-02-28T21:15:02;1027.4;;;12.4;75.3
74431;BME280;62863;52.062;23.764;2024-02-28T21:19:52;1027.5;;;12.3;75.6
74431;BME280;62863;52.062;23.764;2024-02-28T21:24:36;1027.5;;;12.4;76.2
74431;BME280;62863;52.062;23.764;2024-02-28T21:30:02;1027.5;;;12.4;76.1
74431;BME280;62863;52.062;23.764;2024-02-28T21:34:44;1027.5;;;12.4;75.6
74431;BME280;62863;52.062;23.764;2024-02-28T21:39:30;1027.6;;;12.3;75.4
74431;BME280;62863;52.062;23.764;2024-02-28T21:44:24;1027.6;;;12.3;75.3
74431;BME280;62863;52.062;23.764;2024-02-28T21:49:46;1027.7;;;12.2;75.3
74431;BME280;62863;52.062;23.764;2024-02-28T21:54:24;1027.7;;;12.2;75.4
74431;BME280;62863;52.062;23.764;2024-02-28T21:59:24;1027.7;;;12.2;75.4
74431;BME280;62863;52.062;23.764;2024-02-28T22:04:54;1027.8;;;12.2;75.8
74431;BME280;62863;52.062;23.764;2024-02-28T22:09:32;1027.8;;;12.2;76.5
74431;BME280;62863;52.062;23.764;2024-02-28T22:14:54;1027.8;;;12.2;76.6
74431;BME280;62863;52.062;23.764;2024-02-28T22:19:24;1027.9;;;12.1;76.3
74431;BME280;62863;52.062;23.764;2024-02-28T22:25:02;1027.9;;;12;76.1
74431;BME280;62863;52.062;23.764;2024-02-28T22:29:38;1027.9;;;12;76
74431;BME280;62863;52.062;23.764;2024-02-28T22:34:52;1028;;;11.9;75.5
74431;BME280;62863;52.062;23.764;2024-02-28T22:40:02;1028;;;11.8;75.3
74431;BME280;62863;52.062;23.764;2024-02-28T22:44:48;1028.1;;;11.7;75.4
74431;BME280;62863;52.062;23.764;2024-02-28T22:50:02;1028.2;;;11.6;75.6
74431;BME280;62863;52.062;23.764;2024-02-28T22:54:44;1028.3;;;11.6;75.8
74431;BME280;62863;52.062;23.764;2024-02-28T22:59:44;1028.3;;;11.5;76.1
74431;BME280;62863;52.062;23.764;2024-02-28T23:05:02;1028.3;;;11.5;76.8
74431;BME280;62863;52.062;23.764;2024-02-28T23:10:02;1028.3;;;11.4;77.2
74431;BME280;62863;52.062;23.764;2024-02-28T23:14:54;1028.3;;;11.4;77.3
74431;BME280;62863;52.062;23.764;2024-02-28T23:19:44;1028.3;;;11.4;77.2
74431;BME280;62863;52.062;23.764;2024-02-28T23:24:40;1028.4;;;11.3;76.8
74431;BME280;62863;52.062;23.764;2024-02-28T23:29:32;1028.5;;;11.3;77.3
74431;BME280;62863;52.062;23.764;2024-02-28T23:34:46;1028.5;;;11.2;76.9
74431;BME280;62863;52.062;23.764;2024-02-28T23:39:32;1028.6;;;11.2;76.5
74431;BME280;62863;52.062;23.764;2024-02-28T23:44:40;1028.6;;;11.2;76.4
74431;BME280;62863;52.062;23.764;2024-02-28T23:49:48;1028.6;;;11.2;76.2
74431;BME280;62863;52.062;23.764;2024-02-28T23:54:40;1028.6;;;11.1;76.2
74431;BME280;62863;52.062;23.764;2024-02-28T23:59:54;1028.7;;;11.1;76.2
